createdAt,value
2023-04-22T00:01:57.263Z,8.84
2023-04-22T00:04:23.736Z,8.86
2023-04-22T00:06:50.342Z,8.97
2023-04-22T00:09:16.829Z,8.95
2023-04-22T00:11:43.304Z,9.03
2023-04-22T00:14:09.726Z,9.04
2023-04-22T00:16:36.441Z,8.96
2023-04-22T00:19:04.415Z,8.91
2023-04-22T00:21:31.009Z,8.79
2023-04-22T00:23:57.454Z,8.73
2023-04-22T00:26:24.345Z,8.70
2023-04-22T00:28:50.853Z,8.62
2023-04-22T00:31:17.462Z,8.47
2023-04-22T00:33:43.933Z,8.34
2023-04-22T00:36:10.869Z,8.26
2023-04-22T00:38:37.446Z,8.17
2023-04-22T00:41:04.534Z,8.12
2023-04-22T00:43:31.271Z,8.06
2023-04-22T00:45:58.051Z,7.95
2023-04-22T00:48:26.860Z,7.96
2023-04-22T00:50:55.169Z,7.83
2023-04-22T00:53:21.763Z,7.78
2023-04-22T00:55:48.473Z,7.76
2023-04-22T00:58:14.937Z,7.67
2023-04-22T01:00:41.624Z,7.57
2023-04-22T01:03:08.410Z,7.52
2023-04-22T01:05:35.771Z,7.52
2023-04-22T01:08:02.536Z,7.49
2023-04-22T01:10:29.251Z,7.45
2023-04-22T01:12:56.014Z,7.37
2023-04-22T01:15:22.750Z,7.41
2023-04-22T01:17:49.506Z,7.38
2023-04-22T01:20:57.663Z,7.31
2023-04-22T01:23:49.843Z,7.19
2023-04-22T01:26:16.516Z,7.37
2023-04-22T01:28:43.120Z,7.41
2023-04-22T01:31:09.694Z,7.44
2023-04-22T01:33:36.594Z,7.48
2023-04-22T01:36:03.508Z,7.55
2023-04-22T01:38:33.436Z,7.56
2023-04-22T01:41:04.390Z,7.71
2023-04-22T01:43:31.612Z,7.69
2023-04-22T01:45:58.353Z,7.71
2023-04-22T01:48:25.158Z,7.70
2023-04-22T01:50:51.705Z,7.65
2023-04-22T01:53:18.302Z,7.57
2023-04-22T01:55:45.051Z,7.77
2023-04-22T01:58:11.728Z,7.68
2023-04-22T02:00:38.375Z,7.61
2023-04-22T02:03:05.630Z,7.50
2023-04-22T02:05:32.417Z,7.44
2023-04-22T02:07:59.014Z,7.36
2023-04-22T02:10:25.531Z,7.31
2023-04-22T02:12:52.305Z,7.45
2023-04-22T02:15:19.252Z,7.35
2023-04-22T02:20:48.807Z,7.23
2023-04-22T02:23:15.812Z,7.15
2023-04-22T02:25:48.655Z,7.08
2023-04-22T02:28:16.155Z,6.94
2023-04-22T02:30:42.928Z,6.93
2023-04-22T02:33:09.748Z,6.81
2023-04-22T02:35:36.570Z,6.75
2023-04-22T02:38:03.460Z,6.69
2023-04-22T02:40:30.446Z,6.60
2023-04-22T02:42:57.543Z,6.56
2023-04-22T02:45:24.419Z,6.45
2023-04-22T02:47:51.308Z,6.49
2023-04-22T02:50:18.208Z,6.47
2023-04-22T02:52:44.855Z,6.55
2023-04-22T02:55:11.550Z,6.69
2023-04-22T02:57:38.429Z,6.61
2023-04-22T03:00:05.679Z,6.58
2023-04-22T03:02:32.527Z,6.44
2023-04-22T03:05:00.919Z,6.41
2023-04-22T03:07:27.477Z,6.33
2023-04-22T03:09:55.857Z,6.29
2023-04-22T03:12:22.379Z,6.25
2023-04-22T03:14:48.920Z,6.21
2023-04-22T03:17:15.523Z,6.24
2023-04-22T03:19:42.453Z,6.20
2023-04-22T03:22:09.322Z,6.18
2023-04-22T03:24:35.981Z,6.18
2023-04-22T03:27:03.962Z,6.21
2023-04-22T03:29:30.567Z,6.42
2023-04-22T03:31:57.083Z,6.51
2023-04-22T03:34:23.704Z,6.57
2023-04-22T03:36:50.138Z,6.46
2023-04-22T03:39:16.726Z,6.44
2023-04-22T03:41:43.685Z,6.49
2023-04-22T03:44:11.030Z,6.49
2023-04-22T03:46:37.629Z,6.59
2023-04-22T03:49:04.570Z,6.69
2023-04-22T03:51:31.837Z,6.72
2023-04-22T03:53:58.569Z,6.68
2023-04-22T03:56:25.471Z,6.59
2023-04-22T03:58:52.071Z,6.54
2023-04-22T04:01:19.117Z,6.47
2023-04-22T04:03:45.822Z,6.38
2023-04-22T04:06:12.518Z,6.27
2023-04-22T04:08:38.943Z,6.25
2023-04-22T04:11:05.513Z,6.20
2023-04-22T04:13:32.202Z,6.15
2023-04-22T04:16:00.163Z,6.21
2023-04-22T04:18:27.101Z,6.18
2023-04-22T04:20:53.502Z,6.13
2023-04-22T04:23:20.037Z,6.11
2023-04-22T04:25:46.627Z,6.14
2023-04-22T04:28:13.956Z,6.13
2023-04-22T04:30:41.787Z,6.18
2023-04-22T04:33:08.613Z,6.17
2023-04-22T04:35:36.256Z,6.23
2023-04-22T04:38:03.148Z,6.25
2023-04-22T04:40:30.729Z,6.35
2023-04-22T04:43:02.593Z,6.36
2023-04-22T04:47:57.144Z,6.43
2023-04-22T04:50:23.903Z,6.55
2023-04-22T04:52:50.843Z,6.70
2023-04-22T04:55:19.151Z,6.75
2023-04-22T04:57:46.606Z,6.90
2023-04-22T05:00:16.587Z,7.11
2023-04-22T05:02:43.421Z,7.45
2023-04-22T05:05:10.395Z,7.49
2023-04-22T05:07:36.979Z,7.61
2023-04-22T05:10:04.368Z,7.74
2023-04-22T05:12:31.167Z,8.20
2023-04-22T05:14:57.740Z,9.10
2023-04-22T05:17:24.988Z,9.32
2023-04-22T05:19:51.493Z,9.42
2023-04-22T05:22:18.354Z,9.66
2023-04-22T05:24:45.475Z,10.16
2023-04-22T05:27:11.998Z,10.42
2023-04-22T05:29:38.703Z,10.89
2023-04-22T05:32:07.739Z,11.01
2023-04-22T05:34:35.716Z,11.62
2023-04-22T05:37:05.782Z,11.49
2023-04-22T05:39:32.445Z,11.67
2023-04-22T05:41:58.954Z,11.83
2023-04-22T05:44:25.487Z,12.36
2023-04-22T05:46:51.973Z,12.00
2023-04-22T05:49:18.492Z,11.47
2023-04-22T05:51:45.560Z,11.42
2023-04-22T05:54:12.038Z,11.87
2023-04-22T05:56:38.577Z,12.07
2023-04-22T05:59:05.205Z,11.95
2023-04-22T06:01:32.124Z,12.48
2023-04-22T06:03:58.853Z,13.55
2023-04-22T06:06:26.023Z,14.99
2023-04-22T06:08:52.765Z,16.40
2023-04-22T06:11:20.066Z,16.46
2023-04-22T06:13:46.499Z,16.61
2023-04-22T06:16:12.986Z,17.72
2023-04-22T06:18:39.500Z,17.59
2023-04-22T06:21:06.372Z,18.63
2023-04-22T06:23:33.311Z,19.22
2023-04-22T06:26:01.582Z,19.86
2023-04-22T06:28:28.435Z,19.96
2023-04-22T06:30:54.882Z,20.26
2023-04-22T06:33:21.581Z,19.39
2023-04-22T06:35:48.039Z,20.24
2023-04-22T06:38:14.745Z,20.11
2023-04-22T06:40:41.266Z,19.60
2023-04-22T06:43:07.631Z,19.97
2023-04-22T06:45:34.482Z,19.93
2023-04-22T06:48:01.356Z,20.20
2023-04-22T06:50:28.027Z,19.85
2023-04-22T06:52:54.695Z,20.19
2023-04-22T06:55:21.737Z,19.93
2023-04-22T06:57:48.379Z,20.53
2023-04-22T07:00:15.488Z,20.53
2023-04-22T07:02:42.211Z,20.22
2023-04-22T07:05:09.202Z,20.15
2023-04-22T07:07:36.685Z,19.82
2023-04-22T07:10:04.482Z,20.70
2023-04-22T07:12:31.218Z,20.88
2023-04-22T07:14:57.649Z,20.36
2023-04-22T07:17:24.222Z,21.04
2023-04-22T07:19:51.017Z,21.02
2023-04-22T07:22:17.606Z,20.99
2023-04-22T07:24:44.084Z,21.02
2023-04-22T07:27:10.824Z,21.32
2023-04-22T07:29:37.618Z,20.60
2023-04-22T07:32:04.786Z,21.04
2023-04-22T07:34:32.275Z,20.32
2023-04-22T07:36:58.718Z,21.06
2023-04-22T07:39:25.229Z,21.35
2023-04-22T07:41:51.711Z,21.49
2023-04-22T07:44:21.570Z,21.92
2023-04-22T07:46:49.030Z,21.90
2023-04-22T07:49:16.784Z,21.19
2023-04-22T07:51:44.569Z,21.82
2023-04-22T07:54:11.162Z,21.75
2023-04-22T07:56:37.846Z,22.25
2023-04-22T07:59:04.344Z,23.26
2023-04-22T08:01:30.884Z,23.45
2023-04-22T08:03:57.492Z,23.19
2023-04-22T08:06:24.263Z,22.17
2023-04-22T08:08:50.681Z,21.63
2023-04-22T08:11:18.007Z,21.55
2023-04-22T08:13:44.576Z,22.39
2023-04-22T08:16:11.040Z,23.10
2023-04-22T08:18:37.491Z,23.20
2023-04-22T08:21:04.376Z,23.66
2023-04-22T08:23:30.895Z,22.93
2023-04-22T08:25:57.936Z,23.12
2023-04-22T08:28:24.719Z,23.36
2023-04-22T08:30:51.156Z,24.19
2023-04-22T08:33:18.896Z,23.36
2023-04-22T08:35:45.600Z,22.79
2023-04-22T08:38:12.195Z,23.58
2023-04-22T08:40:41.501Z,22.97
2023-04-22T08:43:08.788Z,24.13
2023-04-22T08:45:38.620Z,22.88
2023-04-22T08:48:05.757Z,22.79
2023-04-22T08:50:32.977Z,22.62
2023-04-22T08:52:59.907Z,22.64
2023-04-22T08:55:26.588Z,23.03
2023-04-22T08:57:54.078Z,23.88
2023-04-22T09:00:20.927Z,23.39
2023-04-22T09:02:48.354Z,22.90
2023-04-22T09:05:15.333Z,23.32
2023-04-22T09:07:42.538Z,24.60
2023-04-22T09:10:11.821Z,24.61
2023-04-22T09:12:39.150Z,24.38
2023-04-22T09:15:07.321Z,24.79
2023-04-22T09:17:35.420Z,24.70
2023-04-22T09:20:03.261Z,24.25
2023-04-22T09:22:39.799Z,24.63
2023-04-22T09:25:08.163Z,23.14
2023-04-22T09:27:35.410Z,24.16
2023-04-22T09:30:06.981Z,23.92
2023-04-22T09:32:33.566Z,23.99
2023-04-22T09:35:01.015Z,24.45
2023-04-22T09:37:36.084Z,24.60
2023-04-22T09:40:16.018Z,22.88
2023-04-22T09:42:52.843Z,22.90
2023-04-22T09:45:30.218Z,24.02
2023-04-22T09:47:58.065Z,23.88
2023-04-22T09:50:25.938Z,24.04
2023-04-22T09:52:56.791Z,24.28
2023-04-22T09:55:25.055Z,24.01
2023-04-22T09:57:54.022Z,24.41
2023-04-22T10:00:21.915Z,24.06
2023-04-22T10:02:48.666Z,23.60
2023-04-22T10:05:15.514Z,24.37
2023-04-22T10:07:42.590Z,23.34
2023-04-22T10:10:09.492Z,23.65
2023-04-22T10:12:36.840Z,24.34
2023-04-22T10:15:07.767Z,25.31
2023-04-22T10:17:37.559Z,25.27
2023-04-22T10:20:07.875Z,24.90
2023-04-22T10:22:35.301Z,26.55
2023-04-22T10:25:01.974Z,26.10
2023-04-22T10:27:28.699Z,25.24
2023-04-22T10:29:56.466Z,25.53
2023-04-22T10:32:23.106Z,26.71
2023-04-22T10:34:50.402Z,26.31
2023-04-22T10:37:21.629Z,25.50
2023-04-22T10:40:09.757Z,25.96
2023-04-22T10:42:37.018Z,26.00
2023-04-22T10:45:04.893Z,25.89
2023-04-22T10:47:33.076Z,24.98
2023-04-22T10:50:27.290Z,25.36
2023-04-22T10:53:21.334Z,25.92
2023-04-22T10:55:52.742Z,26.01
2023-04-22T10:58:20.460Z,25.96
2023-04-22T11:03:26.926Z,25.16
2023-04-22T11:06:16.163Z,24.44
2023-04-22T11:08:46.854Z,23.95
2023-04-22T11:11:16.220Z,24.51
2023-04-22T11:13:47.369Z,25.11
2023-04-22T11:16:14.039Z,24.09
2023-04-22T11:18:41.072Z,24.49
2023-04-22T11:21:08.814Z,24.78
2023-04-22T11:23:36.285Z,24.69
2023-04-22T11:26:04.914Z,25.20
2023-04-22T11:28:32.051Z,24.04
2023-04-22T11:31:02.973Z,24.01
2023-04-22T11:33:29.458Z,23.81
2023-04-22T11:35:57.821Z,24.71
2023-04-22T11:38:24.301Z,24.45
2023-04-22T11:40:50.753Z,24.55
2023-04-22T11:43:18.878Z,24.59
2023-04-22T11:45:45.527Z,24.33
2023-04-22T11:48:12.188Z,23.97
2023-04-22T11:50:40.724Z,24.35
2023-04-22T11:53:18.762Z,23.81
2023-04-22T11:55:46.890Z,23.86
2023-04-22T11:58:23.883Z,24.12
2023-04-22T12:00:51.834Z,23.52
2023-04-22T12:03:19.516Z,23.82
2023-04-22T12:05:52.980Z,23.84
2023-04-22T12:08:21.883Z,24.23
2023-04-22T12:10:54.559Z,23.89
2023-04-22T12:13:33.353Z,23.35
2023-04-22T12:16:04.875Z,23.77
2023-04-22T12:18:33.128Z,24.18
2023-04-22T12:21:01.386Z,24.50
2023-04-22T12:23:28.533Z,23.23
2023-04-22T12:25:54.921Z,24.04
2023-04-22T12:28:21.612Z,24.56
2023-04-22T12:30:48.187Z,24.07
2023-04-22T12:33:15.263Z,23.79
2023-04-22T12:35:41.730Z,23.74
2023-04-22T12:38:08.472Z,23.85
2023-04-22T12:40:34.934Z,23.85
2023-04-22T12:43:03.425Z,22.96
2023-04-22T12:45:29.802Z,22.73
2023-04-22T12:47:56.322Z,23.24
2023-04-22T12:50:22.818Z,23.42
2023-04-22T12:52:49.287Z,23.96
2023-04-22T12:55:15.845Z,23.40
2023-04-22T12:57:42.416Z,22.68
2023-04-22T13:00:14.382Z,23.01
2023-04-22T13:02:42.747Z,23.12
2023-04-22T13:05:10.406Z,22.92
2023-04-22T13:07:37.732Z,23.20
2023-04-22T13:10:05.626Z,22.58
2023-04-22T13:12:32.232Z,23.15
2023-04-22T13:14:58.723Z,23.73
2023-04-22T13:17:26.190Z,23.80
2023-04-22T13:19:52.708Z,23.76
2023-04-22T13:22:19.238Z,23.60
2023-04-22T13:24:45.839Z,22.97
2023-04-22T13:27:13.074Z,22.80
2023-04-22T13:29:39.699Z,22.73
2023-04-22T13:32:06.534Z,22.88
2023-04-22T13:34:33.019Z,22.98
2023-04-22T13:36:59.816Z,23.18
2023-04-22T13:39:26.740Z,23.51
2023-04-22T13:41:53.895Z,22.89
2023-04-22T13:44:20.431Z,23.00
2023-04-22T13:46:47.309Z,23.09
2023-04-22T13:49:13.928Z,23.39
2023-04-22T13:51:40.471Z,23.45
2023-04-22T13:54:07.187Z,23.17
2023-04-22T13:56:34.091Z,23.20
2023-04-22T13:59:01.092Z,22.74
2023-04-22T14:01:27.845Z,22.92
2023-04-22T14:03:54.966Z,22.89
2023-04-22T14:06:21.760Z,22.86
2023-04-22T14:08:48.218Z,23.00
2023-04-22T14:11:14.723Z,22.73
2023-04-22T14:13:41.354Z,22.48
2023-04-22T14:16:09.872Z,22.37
2023-04-22T14:18:37.664Z,22.62
2023-04-22T14:21:07.377Z,22.49
2023-04-22T14:23:34.347Z,22.60
2023-04-22T14:26:00.923Z,22.23
2023-04-22T14:28:27.792Z,22.58
2023-04-22T14:30:55.477Z,22.86
2023-04-22T14:33:24.621Z,22.97
2023-04-22T14:35:52.806Z,22.91
2023-04-22T14:38:20.912Z,22.82
2023-04-22T14:40:48.532Z,22.67
2023-04-22T14:43:17.119Z,22.96
2023-04-22T14:45:44.186Z,22.91
2023-04-22T14:48:12.379Z,22.99
2023-04-22T14:50:39.118Z,23.12
2023-04-22T14:53:06.144Z,23.18
2023-04-22T14:55:32.783Z,23.12
2023-04-22T14:57:59.305Z,23.08
2023-04-22T15:00:26.573Z,22.92
2023-04-22T15:02:54.406Z,22.87
2023-04-22T15:05:22.293Z,22.92
2023-04-22T15:07:48.994Z,22.67
2023-04-22T15:10:16.778Z,22.65
2023-04-22T15:12:43.874Z,22.68
2023-04-22T15:15:13.274Z,22.68
2023-04-22T15:17:40.821Z,22.68
2023-04-22T15:20:09.221Z,22.42
2023-04-22T15:22:36.172Z,22.77
2023-04-22T15:25:03.787Z,22.92
2023-04-22T15:27:30.591Z,23.01
2023-04-22T15:29:57.677Z,22.93
2023-04-22T15:32:24.138Z,22.62
2023-04-22T15:34:50.695Z,22.58
2023-04-22T15:37:17.081Z,22.40
2023-04-22T15:39:43.642Z,22.40
2023-04-22T15:42:10.156Z,22.40
2023-04-22T15:44:36.656Z,22.21
2023-04-22T15:47:03.711Z,21.93
2023-04-22T15:49:30.224Z,21.77
2023-04-22T15:51:57.508Z,21.61
2023-04-22T15:54:23.968Z,21.81
2023-04-22T15:56:50.467Z,21.91
2023-04-22T15:59:16.966Z,21.63
2023-04-22T16:01:45.847Z,21.52
2023-04-22T16:04:13.162Z,21.43
2023-04-22T16:06:40.516Z,21.49
2023-04-22T16:09:06.933Z,21.46
2023-04-22T16:11:33.447Z,21.51
2023-04-22T16:13:59.862Z,21.58
2023-04-22T16:16:26.378Z,21.54
2023-04-22T16:18:53.110Z,21.48
2023-04-22T16:21:19.653Z,21.42
2023-04-22T16:23:46.096Z,21.26
2023-04-22T16:26:12.657Z,21.34
2023-04-22T16:28:39.122Z,21.39
2023-04-22T16:31:05.675Z,21.41
2023-04-22T16:33:33.104Z,21.35
2023-04-22T16:35:59.619Z,21.30
2023-04-22T16:38:26.036Z,21.14
2023-04-22T16:40:54.204Z,21.21
2023-04-22T16:43:20.850Z,21.20
2023-04-22T16:45:47.493Z,21.06
2023-04-22T16:48:14.150Z,21.09
2023-04-22T16:50:40.695Z,21.22
2023-04-22T16:53:08.747Z,21.37
2023-04-22T16:55:36.954Z,21.26
2023-04-22T16:58:03.950Z,21.31
2023-04-22T17:00:30.754Z,21.32
2023-04-22T17:02:57.339Z,21.30
2023-04-22T17:05:23.857Z,21.35
2023-04-22T17:07:50.407Z,21.29
2023-04-22T17:10:16.946Z,21.19
2023-04-22T17:12:44.016Z,20.98
2023-04-22T17:15:12.021Z,21.01
2023-04-22T17:17:38.448Z,20.81
2023-04-22T17:20:06.646Z,20.71
2023-04-22T17:22:33.291Z,20.66
2023-04-22T17:24:59.786Z,20.63
2023-04-22T17:27:26.493Z,20.56
2023-04-22T17:29:53.350Z,20.47
2023-04-22T17:32:19.867Z,20.45
2023-04-22T17:34:46.276Z,20.32
2023-04-22T17:37:12.651Z,20.35
2023-04-22T17:39:40.327Z,20.20
2023-04-22T17:42:06.789Z,20.19
2023-04-22T17:44:33.401Z,20.19
2023-04-22T17:46:59.930Z,20.13
2023-04-22T17:49:26.488Z,20.05
2023-04-22T17:51:53.777Z,19.93
2023-04-22T17:54:20.327Z,19.93
2023-04-22T17:56:47.155Z,19.87
2023-04-22T17:59:14.315Z,19.86
2023-04-22T18:01:40.922Z,19.75
2023-04-22T18:04:07.509Z,19.61
2023-04-22T18:06:33.991Z,19.57
2023-04-22T18:09:00.772Z,19.38
2023-04-22T18:11:28.029Z,19.31
2023-04-22T18:13:55.196Z,19.18
2023-04-22T18:16:21.629Z,19.21
2023-04-22T18:18:48.173Z,19.10
2023-04-22T18:21:14.947Z,18.99
2023-04-22T18:23:41.410Z,18.96
2023-04-22T18:26:11.198Z,18.86
2023-04-22T18:28:40.236Z,18.73
2023-04-22T18:31:07.977Z,18.58
2023-04-22T18:33:34.611Z,18.41
2023-04-22T18:36:01.264Z,18.23
2023-04-22T18:38:27.859Z,18.06
2023-04-22T18:40:55.461Z,17.80
2023-04-22T18:43:22.317Z,17.52
2023-04-22T18:45:48.869Z,17.32
2023-04-22T18:48:15.850Z,17.07
2023-04-22T18:50:42.381Z,16.90
2023-04-22T18:53:08.823Z,16.70
2023-04-22T18:55:35.450Z,16.67
2023-04-22T18:58:01.892Z,16.50
2023-04-22T19:00:28.522Z,16.40
2023-04-22T19:02:55.016Z,16.26
2023-04-22T19:05:21.623Z,16.14
2023-04-22T19:07:48.070Z,16.06
2023-04-22T19:10:14.552Z,16.03
2023-04-22T19:12:41.614Z,15.95
2023-04-22T19:15:08.473Z,15.87
2023-04-22T19:17:35.018Z,15.84
2023-04-22T19:20:01.545Z,15.80
2023-04-22T19:22:28.038Z,15.77
2023-04-22T19:24:54.578Z,15.85
2023-04-22T19:27:21.479Z,16.01
2023-04-22T19:29:53.381Z,16.17
2023-04-22T19:32:20.730Z,16.25
2023-04-22T19:34:47.636Z,16.36
2023-04-22T19:37:14.280Z,16.47
2023-04-22T19:39:41.071Z,16.61
2023-04-22T19:42:07.796Z,16.64
2023-04-22T19:44:34.281Z,16.50
2023-04-22T19:47:01.237Z,16.57
2023-04-22T19:49:28.560Z,16.50
2023-04-22T19:51:55.976Z,16.61
2023-04-22T19:54:22.910Z,16.59
2023-04-22T19:56:49.440Z,16.64
2023-04-22T19:59:16.082Z,16.68
2023-04-22T20:01:42.855Z,16.72
2023-04-22T20:04:09.773Z,16.70
2023-04-22T20:06:36.535Z,16.73
2023-04-22T20:09:05.722Z,16.62
2023-04-22T20:11:32.785Z,16.52
2023-04-22T20:13:59.924Z,16.41
2023-04-22T20:16:27.063Z,16.43
2023-04-22T20:18:54.420Z,16.33
2023-04-22T20:21:21.415Z,16.22
2023-04-22T20:23:50.560Z,16.22
2023-04-22T20:26:19.843Z,16.19
2023-04-22T20:28:48.673Z,16.11
2023-04-22T20:31:18.378Z,15.91
2023-04-22T20:33:45.059Z,15.78
2023-04-22T20:36:14.733Z,15.60
2023-04-22T20:38:41.604Z,15.63
2023-04-22T20:41:09.714Z,15.77
2023-04-22T20:43:36.527Z,15.70
2023-04-22T20:46:03.234Z,15.49
2023-04-22T20:48:29.846Z,15.42
2023-04-22T20:50:56.382Z,15.27
2023-04-22T20:53:23.759Z,15.18
2023-04-22T20:55:50.905Z,15.17
2023-04-22T20:58:17.334Z,15.00
2023-04-22T21:00:43.964Z,14.94
2023-04-22T21:03:11.511Z,14.84
2023-04-22T21:05:42.514Z,14.79
2023-04-22T21:08:26.116Z,14.68
2023-04-22T21:10:55.127Z,14.67
2023-04-22T21:13:22.236Z,14.85
2023-04-22T21:15:58.144Z,14.88
2023-04-22T21:18:26.199Z,15.03
2023-04-22T21:20:53.149Z,15.22
2023-04-22T21:23:20.599Z,15.28
2023-04-22T21:25:50.822Z,15.05
2023-04-22T21:28:18.291Z,14.95
2023-04-22T21:30:44.931Z,14.79
2023-04-22T21:33:11.337Z,14.71
2023-04-22T21:35:39.307Z,14.71
2023-04-22T21:38:05.815Z,14.53
2023-04-22T21:40:32.229Z,14.60
2023-04-22T21:43:00.119Z,14.68
2023-04-22T21:45:27.424Z,14.73
2023-04-22T21:47:54.028Z,14.65
2023-04-22T21:50:21.100Z,14.77
2023-04-22T21:52:48.767Z,14.66
2023-04-22T21:55:15.341Z,14.66
2023-04-22T21:57:41.772Z,14.64
2023-04-22T22:00:15.563Z,14.57
2023-04-22T22:02:44.492Z,14.42
2023-04-22T22:05:11.998Z,14.50
2023-04-22T22:07:40.608Z,14.47
2023-04-22T22:10:08.911Z,14.41
2023-04-22T22:12:35.930Z,14.38
2023-04-22T22:15:04.366Z,14.38
2023-04-22T22:17:31.847Z,14.37
2023-04-22T22:19:58.255Z,14.27
2023-04-22T22:22:24.658Z,14.24
2023-04-22T22:24:52.696Z,14.16
2023-04-22T22:27:19.384Z,14.11
2023-04-22T22:29:46.577Z,14.05
2023-04-22T22:32:13.398Z,13.92
2023-04-22T22:34:40.265Z,13.84
2023-04-22T22:37:07.026Z,13.77
2023-04-22T22:39:33.450Z,13.75
2023-04-22T22:41:59.951Z,13.71
2023-04-22T22:44:26.414Z,13.66
2023-04-22T22:46:52.960Z,13.65
2023-04-22T22:49:19.777Z,13.54
2023-04-22T22:51:46.244Z,13.61
2023-04-22T22:54:12.708Z,13.65
2023-04-22T22:56:39.137Z,13.57
2023-04-22T22:59:05.774Z,13.55
2023-04-22T23:01:32.390Z,13.50
2023-04-22T23:03:59.982Z,13.43
2023-04-22T23:06:27.413Z,13.45
2023-04-22T23:08:54.026Z,13.52
2023-04-22T23:11:20.482Z,13.54
2023-04-22T23:13:47.951Z,13.53
2023-04-22T23:16:15.575Z,13.53
2023-04-22T23:18:43.409Z,13.47
2023-04-22T23:21:10.392Z,13.53
2023-04-22T23:23:37.763Z,13.56
2023-04-22T23:26:04.616Z,13.52
2023-04-22T23:28:31.484Z,13.50
2023-04-22T23:30:58.345Z,13.51
2023-04-22T23:33:25.731Z,13.50
2023-04-22T23:35:56.657Z,13.55
2023-04-22T23:38:23.426Z,13.58
2023-04-22T23:40:49.840Z,13.62
2023-04-22T23:43:16.778Z,13.62
2023-04-22T23:45:43.154Z,13.61
2023-04-22T23:48:09.727Z,13.68
2023-04-22T23:50:36.187Z,13.70
2023-04-22T23:53:02.824Z,13.72
2023-04-22T23:55:29.924Z,13.78
2023-04-22T23:57:57.887Z,13.73
